sensor_id;sensor_type;location;lat;lon;timestamp;P1;durP1;ratioP1;P2;durP2;ratioP2
21798;SDS011;24973;47.178;15.316;2023-03-03T00:02:28;11.87;;;9.70;;
21798;SDS011;24973;47.178;15.316;2023-03-03T00:05:17;16.27;;;10.57;;
21798;SDS011;24973;47.178;15.316;2023-03-03T00:08:06;12.73;;;9.37;;
21798;SDS011;24973;47.178;15.316;2023-03-03T00:10:55;11.77;;;9.70;;
21798;SDS011;24973;47.178;15.316;2023-03-03T00:13:46;12.70;;;9.10;;
21798;SDS011;24973;47.178;15.316;2023-03-03T00:16:37;12.10;;;9.27;;
21798;SDS011;24973;47.178;15.316;2023-03-03T00:19:26;13.70;;;10.13;;
21798;SDS011;24973;47.178;15.316;2023-03-03T00:22:20;10.73;;;8.80;;
21798;SDS011;24973;47.178;15.316;2023-03-03T00:25:20;12.63;;;8.80;;
21798;SDS011;24973;47.178;15.316;2023-03-03T00:28:19;14.10;;;10.03;;
21798;SDS011;24973;47.178;15.316;2023-03-03T00:31:15;12.33;;;8.13;;
21798;SDS011;24973;47.178;15.316;2023-03-03T00:34:11;11.77;;;8.83;;
21798;SDS011;24973;47.178;15.316;2023-03-03T00:37:19;9.47;;;8.03;;
21798;SDS011;24973;47.178;15.316;2023-03-03T00:40:19;10.37;;;7.53;;
21798;SDS011;24973;47.178;15.316;2023-03-03T00:43:12;13.77;;;8.83;;
21798;SDS011;24973;47.178;15.316;2023-03-03T00:46:07;12.17;;;8.83;;
21798;SDS011;24973;47.178;15.316;2023-03-03T00:48:58;9.00;;;8.10;;
21798;SDS011;24973;47.178;15.316;2023-03-03T00:51:47;11.33;;;7.93;;
21798;SDS011;24973;47.178;15.316;2023-03-03T00:54:35;12.20;;;9.07;;
21798;SDS011;24973;47.178;15.316;2023-03-03T00:57:24;11.27;;;8.17;;
21798;SDS011;24973;47.178;15.316;2023-03-03T01:00:13;11.53;;;9.50;;
21798;SDS011;24973;47.178;15.316;2023-03-03T01:03:03;15.23;;;8.37;;
21798;SDS011;24973;47.178;15.316;2023-03-03T01:05:55;13.20;;;8.67;;
21798;SDS011;24973;47.178;15.316;2023-03-03T01:08:43;11.07;;;9.47;;
21798;SDS011;24973;47.178;15.316;2023-03-03T01:11:32;14.53;;;9.50;;
21798;SDS011;24973;47.178;15.316;2023-03-03T01:14:21;11.33;;;7.90;;
21798;SDS011;24973;47.178;15.316;2023-03-03T01:17:10;12.07;;;8.40;;
21798;SDS011;24973;47.178;15.316;2023-03-03T01:19:59;12.13;;;9.20;;
21798;SDS011;24973;47.178;15.316;2023-03-03T01:22:49;12.13;;;9.07;;
21798;SDS011;24973;47.178;15.316;2023-03-03T01:25:38;11.23;;;8.63;;
21798;SDS011;24973;47.178;15.316;2023-03-03T01:28:26;11.30;;;8.93;;
21798;SDS011;24973;47.178;15.316;2023-03-03T01:31:15;14.10;;;10.03;;
21798;SDS011;24973;47.178;15.316;2023-03-03T01:34:04;12.03;;;8.40;;
21798;SDS011;24973;47.178;15.316;2023-03-03T01:36:53;14.33;;;9.00;;
21798;SDS011;24973;47.178;15.316;2023-03-03T01:39:43;12.17;;;8.07;;
21798;SDS011;24973;47.178;15.316;2023-03-03T01:42:36;11.97;;;8.90;;
21798;SDS011;24973;47.178;15.316;2023-03-03T01:45:26;10.80;;;8.93;;
21798;SDS011;24973;47.178;15.316;2023-03-03T01:48:17;12.37;;;9.50;;
21798;SDS011;24973;47.178;15.316;2023-03-03T01:51:14;12.37;;;8.50;;
21798;SDS011;24973;47.178;15.316;2023-03-03T01:54:09;11.03;;;9.33;;
21798;SDS011;24973;47.178;15.316;2023-03-03T01:57:03;12.03;;;8.47;;
21798;SDS011;24973;47.178;15.316;2023-03-03T02:00:00;12.33;;;9.67;;
21798;SDS011;24973;47.178;15.316;2023-03-03T02:02:52;13.10;;;9.60;;
21798;SDS011;24973;47.178;15.316;2023-03-03T02:05:42;11.10;;;8.07;;
21798;SDS011;24973;47.178;15.316;2023-03-03T02:08:33;13.07;;;9.50;;
21798;SDS011;24973;47.178;15.316;2023-03-03T02:11:27;11.03;;;7.73;;
21798;SDS011;24973;47.178;15.316;2023-03-03T02:14:20;12.00;;;9.43;;
21798;SDS011;24973;47.178;15.316;2023-03-03T02:17:11;12.20;;;8.80;;
21798;SDS011;24973;47.178;15.316;2023-03-03T02:20:00;11.07;;;7.77;;
21798;SDS011;24973;47.178;15.316;2023-03-03T02:22:54;11.53;;;9.27;;
21798;SDS011;24973;47.178;15.316;2023-03-03T02:25:59;15.53;;;8.60;;
21798;SDS011;24973;47.178;15.316;2023-03-03T02:28:54;8.50;;;7.50;;
21798;SDS011;24973;47.178;15.316;2023-03-03T02:31:42;13.07;;;8.50;;
21798;SDS011;24973;47.178;15.316;2023-03-03T02:34:42;14.17;;;9.70;;
21798;SDS011;24973;47.178;15.316;2023-03-03T02:37:34;11.73;;;8.10;;
21798;SDS011;24973;47.178;15.316;2023-03-03T02:40:23;17.70;;;8.83;;
21798;SDS011;24973;47.178;15.316;2023-03-03T02:43:20;12.40;;;8.77;;
21798;SDS011;24973;47.178;15.316;2023-03-03T02:46:12;10.50;;;9.23;;
21798;SDS011;24973;47.178;15.316;2023-03-03T02:49:00;13.77;;;8.17;;
21798;SDS011;24973;47.178;15.316;2023-03-03T02:51:51;12.87;;;8.63;;
21798;SDS011;24973;47.178;15.316;2023-03-03T02:54:40;10.40;;;8.70;;
21798;SDS011;24973;47.178;15.316;2023-03-03T02:57:29;13.83;;;8.60;;
21798;SDS011;24973;47.178;15.316;2023-03-03T03:00:19;13.53;;;9.03;;
21798;SDS011;24973;47.178;15.316;2023-03-03T03:03:08;12.90;;;9.00;;
21798;SDS011;24973;47.178;15.316;2023-03-03T03:05:56;10.80;;;7.47;;
21798;SDS011;24973;47.178;15.316;2023-03-03T03:08:45;13.30;;;8.37;;
21798;SDS011;24973;47.178;15.316;2023-03-03T03:11:34;13.43;;;9.23;;
21798;SDS011;24973;47.178;15.316;2023-03-03T03:14:23;12.03;;;9.37;;
21798;SDS011;24973;47.178;15.316;2023-03-03T03:17:13;15.23;;;9.33;;
21798;SDS011;24973;47.178;15.316;2023-03-03T03:20:02;13.63;;;8.50;;
21798;SDS011;24973;47.178;15.316;2023-03-03T03:22:52;10.40;;;7.83;;
21798;SDS011;24973;47.178;15.316;2023-03-03T03:25:40;10.37;;;8.47;;
21798;SDS011;24973;47.178;15.316;2023-03-03T03:28:32;11.97;;;7.60;;
21798;SDS011;24973;47.178;15.316;2023-03-03T03:31:21;15.50;;;8.07;;
21798;SDS011;24973;47.178;15.316;2023-03-03T03:34:11;11.03;;;8.70;;
21798;SDS011;24973;47.178;15.316;2023-03-03T03:37:00;14.97;;;8.53;;
21798;SDS011;24973;47.178;15.316;2023-03-03T03:39:49;11.60;;;9.47;;
21798;SDS011;24973;47.178;15.316;2023-03-03T03:42:37;10.20;;;7.83;;
21798;SDS011;24973;47.178;15.316;2023-03-03T03:45:27;11.37;;;9.17;;
21798;SDS011;24973;47.178;15.316;2023-03-03T03:48:16;18.63;;;9.20;;
21798;SDS011;24973;47.178;15.316;2023-03-03T03:51:07;11.00;;;8.30;;
21798;SDS011;24973;47.178;15.316;2023-03-03T03:53:58;12.20;;;8.97;;
21798;SDS011;24973;47.178;15.316;2023-03-03T03:56:46;15.10;;;8.83;;
21798;SDS011;24973;47.178;15.316;2023-03-03T03:59:35;14.97;;;9.57;;
21798;SDS011;24973;47.178;15.316;2023-03-03T04:02:24;13.90;;;9.27;;
21798;SDS011;24973;47.178;15.316;2023-03-03T04:05:13;11.10;;;8.00;;
21798;SDS011;24973;47.178;15.316;2023-03-03T04:08:03;14.07;;;9.20;;
21798;SDS011;24973;47.178;15.316;2023-03-03T04:10:52;11.40;;;8.67;;
21798;SDS011;24973;47.178;15.316;2023-03-03T04:13:41;14.13;;;8.90;;
21798;SDS011;24973;47.178;15.316;2023-03-03T04:16:30;9.93;;;8.57;;
21798;SDS011;24973;47.178;15.316;2023-03-03T04:19:18;10.93;;;9.23;;
21798;SDS011;24973;47.178;15.316;2023-03-03T04:22:07;14.60;;;9.23;;
21798;SDS011;24973;47.178;15.316;2023-03-03T04:24:57;13.03;;;7.90;;
21798;SDS011;24973;47.178;15.316;2023-03-03T04:27:46;12.73;;;8.37;;
21798;SDS011;24973;47.178;15.316;2023-03-03T04:30:35;11.17;;;9.47;;
21798;SDS011;24973;47.178;15.316;2023-03-03T04:33:23;11.17;;;8.97;;
21798;SDS011;24973;47.178;15.316;2023-03-03T04:36:12;12.07;;;9.40;;
21798;SDS011;24973;47.178;15.316;2023-03-03T04:39:01;10.87;;;8.17;;
21798;SDS011;24973;47.178;15.316;2023-03-03T04:41:51;11.03;;;8.60;;
21798;SDS011;24973;47.178;15.316;2023-03-03T04:44:40;14.10;;;9.53;;
21798;SDS011;24973;47.178;15.316;2023-03-03T04:47:29;21.77;;;9.00;;
21798;SDS011;24973;47.178;15.316;2023-03-03T04:50:18;15.83;;;9.20;;
21798;SDS011;24973;47.178;15.316;2023-03-03T04:53:07;11.83;;;8.90;;
21798;SDS011;24973;47.178;15.316;2023-03-03T04:55:56;12.40;;;8.30;;
21798;SDS011;24973;47.178;15.316;2023-03-03T04:58:46;12.77;;;9.73;;
21798;SDS011;24973;47.178;15.316;2023-03-03T05:01:35;12.57;;;8.80;;
21798;SDS011;24973;47.178;15.316;2023-03-03T05:04:23;11.60;;;9.43;;
21798;SDS011;24973;47.178;15.316;2023-03-03T05:07:12;13.57;;;8.77;;
21798;SDS011;24973;47.178;15.316;2023-03-03T05:10:01;13.23;;;10.10;;
21798;SDS011;24973;47.178;15.316;2023-03-03T05:12:50;12.47;;;7.77;;
21798;SDS011;24973;47.178;15.316;2023-03-03T05:15:40;13.83;;;9.43;;
21798;SDS011;24973;47.178;15.316;2023-03-03T05:18:29;24.37;;;10.30;;
21798;SDS011;24973;47.178;15.316;2023-03-03T05:21:17;13.10;;;9.57;;
21798;SDS011;24973;47.178;15.316;2023-03-03T05:24:06;13.97;;;9.97;;
21798;SDS011;24973;47.178;15.316;2023-03-03T05:26:55;14.57;;;10.30;;
21798;SDS011;24973;47.178;15.316;2023-03-03T05:29:44;11.87;;;9.07;;
21798;SDS011;24973;47.178;15.316;2023-03-03T05:32:34;14.40;;;9.03;;
21798;SDS011;24973;47.178;15.316;2023-03-03T05:35:23;15.17;;;10.20;;
21798;SDS011;24973;47.178;15.316;2023-03-03T05:38:11;12.63;;;8.70;;
21798;SDS011;24973;47.178;15.316;2023-03-03T05:41:00;14.03;;;8.80;;
21798;SDS011;24973;47.178;15.316;2023-03-03T05:43:49;11.63;;;9.17;;
21798;SDS011;24973;47.178;15.316;2023-03-03T05:46:38;12.37;;;9.70;;
21798;SDS011;24973;47.178;15.316;2023-03-03T05:49:29;10.53;;;8.00;;
21798;SDS011;24973;47.178;15.316;2023-03-03T05:52:18;10.90;;;7.80;;
21798;SDS011;24973;47.178;15.316;2023-03-03T05:55:07;12.57;;;8.93;;
21798;SDS011;24973;47.178;15.316;2023-03-03T05:57:57;14.27;;;8.27;;
21798;SDS011;24973;47.178;15.316;2023-03-03T06:00:46;19.33;;;10.57;;
21798;SDS011;24973;47.178;15.316;2023-03-03T06:03:35;13.37;;;9.83;;
21798;SDS011;24973;47.178;15.316;2023-03-03T06:06:25;13.80;;;9.73;;
21798;SDS011;24973;47.178;15.316;2023-03-03T06:09:13;19.47;;;10.80;;
21798;SDS011;24973;47.178;15.316;2023-03-03T06:12:04;17.20;;;10.53;;
21798;SDS011;24973;47.178;15.316;2023-03-03T06:14:54;14.20;;;9.13;;
21798;SDS011;24973;47.178;15.316;2023-03-03T06:17:42;12.10;;;9.70;;
21798;SDS011;24973;47.178;15.316;2023-03-03T06:20:31;14.50;;;10.33;;
21798;SDS011;24973;47.178;15.316;2023-03-03T06:23:22;12.83;;;9.50;;
21798;SDS011;24973;47.178;15.316;2023-03-03T06:26:12;15.20;;;10.90;;
21798;SDS011;24973;47.178;15.316;2023-03-03T06:29:00;10.53;;;9.43;;
21798;SDS011;24973;47.178;15.316;2023-03-03T06:31:49;19.10;;;11.23;;
21798;SDS011;24973;47.178;15.316;2023-03-03T06:34:38;14.40;;;10.97;;
21798;SDS011;24973;47.178;15.316;2023-03-03T06:37:27;17.03;;;11.60;;
21798;SDS011;24973;47.178;15.316;2023-03-03T06:40:17;21.50;;;12.17;;
21798;SDS011;24973;47.178;15.316;2023-03-03T06:43:06;15.63;;;10.37;;
21798;SDS011;24973;47.178;15.316;2023-03-03T06:45:55;17.60;;;12.23;;
21798;SDS011;24973;47.178;15.316;2023-03-03T06:48:43;13.90;;;9.90;;
21798;SDS011;24973;47.178;15.316;2023-03-03T06:51:33;14.87;;;10.23;;
21798;SDS011;24973;47.178;15.316;2023-03-03T06:54:26;14.43;;;10.27;;
21798;SDS011;24973;47.178;15.316;2023-03-03T06:57:19;16.03;;;10.07;;
21798;SDS011;24973;47.178;15.316;2023-03-03T07:00:15;17.40;;;10.43;;
21798;SDS011;24973;47.178;15.316;2023-03-03T07:03:07;19.60;;;11.70;;
21798;SDS011;24973;47.178;15.316;2023-03-03T07:06:05;15.73;;;11.27;;
21798;SDS011;24973;47.178;15.316;2023-03-03T07:09:05;17.20;;;11.93;;
21798;SDS011;24973;47.178;15.316;2023-03-03T07:12:01;15.30;;;11.17;;
21798;SDS011;24973;47.178;15.316;2023-03-03T07:15:04;19.63;;;13.00;;
21798;SDS011;24973;47.178;15.316;2023-03-03T07:18:02;24.03;;;13.43;;
21798;SDS011;24973;47.178;15.316;2023-03-03T07:21:21;33.83;;;18.23;;
21798;SDS011;24973;47.178;15.316;2023-03-03T07:24:20;42.80;;;24.70;;
21798;SDS011;24973;47.178;15.316;2023-03-03T07:27:16;47.30;;;25.87;;
21798;SDS011;24973;47.178;15.316;2023-03-03T07:30:19;35.53;;;18.90;;
21798;SDS011;24973;47.178;15.316;2023-03-03T07:33:16;35.50;;;18.60;;
21798;SDS011;24973;47.178;15.316;2023-03-03T07:36:21;41.47;;;21.90;;
21798;SDS011;24973;47.178;15.316;2023-03-03T07:39:22;69.73;;;30.60;;
21798;SDS011;24973;47.178;15.316;2023-03-03T07:42:19;76.40;;;33.40;;
21798;SDS011;24973;47.178;15.316;2023-03-03T07:45:21;54.47;;;26.83;;
21798;SDS011;24973;47.178;15.316;2023-03-03T07:48:15;50.00;;;24.23;;
21798;SDS011;24973;47.178;15.316;2023-03-03T07:51:12;36.80;;;18.13;;
21798;SDS011;24973;47.178;15.316;2023-03-03T07:54:14;29.43;;;16.90;;
21798;SDS011;24973;47.178;15.316;2023-03-03T07:57:17;20.23;;;12.83;;
21798;SDS011;24973;47.178;15.316;2023-03-03T08:04:00;21.33;;;12.50;;
21798;SDS011;24973;47.178;15.316;2023-03-03T08:06:54;19.67;;;11.67;;
21798;SDS011;24973;47.178;15.316;2023-03-03T08:09:46;21.97;;;12.67;;
21798;SDS011;24973;47.178;15.316;2023-03-03T08:12:38;29.33;;;12.90;;
21798;SDS011;24973;47.178;15.316;2023-03-03T08:15:30;17.47;;;11.20;;
21798;SDS011;24973;47.178;15.316;2023-03-03T08:18:22;20.97;;;12.93;;
21798;SDS011;24973;47.178;15.316;2023-03-03T08:21:14;20.50;;;12.33;;
21798;SDS011;24973;47.178;15.316;2023-03-03T08:24:04;17.87;;;12.27;;
21798;SDS011;24973;47.178;15.316;2023-03-03T08:26:53;17.03;;;11.40;;
21798;SDS011;24973;47.178;15.316;2023-03-03T08:29:42;20.10;;;13.37;;
21798;SDS011;24973;47.178;15.316;2023-03-03T08:32:33;21.70;;;11.80;;
21798;SDS011;24973;47.178;15.316;2023-03-03T08:35:22;21.07;;;12.40;;
21798;SDS011;24973;47.178;15.316;2023-03-03T08:38:13;15.00;;;10.50;;
21798;SDS011;24973;47.178;15.316;2023-03-03T08:41:06;25.90;;;14.40;;
21798;SDS011;24973;47.178;15.316;2023-03-03T08:43:54;16.40;;;12.03;;
21798;SDS011;24973;47.178;15.316;2023-03-03T08:46:43;18.30;;;12.03;;
21798;SDS011;24973;47.178;15.316;2023-03-03T08:49:32;24.33;;;12.07;;
21798;SDS011;24973;47.178;15.316;2023-03-03T08:52:26;17.90;;;10.70;;
21798;SDS011;24973;47.178;15.316;2023-03-03T08:55:16;19.47;;;12.77;;
21798;SDS011;24973;47.178;15.316;2023-03-03T08:58:05;22.10;;;12.60;;
21798;SDS011;24973;47.178;15.316;2023-03-03T09:00:54;22.90;;;12.40;;
21798;SDS011;24973;47.178;15.316;2023-03-03T09:03:44;14.00;;;9.87;;
21798;SDS011;24973;47.178;15.316;2023-03-03T09:06:33;15.40;;;10.93;;
21798;SDS011;24973;47.178;15.316;2023-03-03T09:09:22;11.57;;;9.20;;
21798;SDS011;24973;47.178;15.316;2023-03-03T09:12:14;17.17;;;10.80;;
21798;SDS011;24973;47.178;15.316;2023-03-03T09:15:15;20.13;;;9.57;;
21798;SDS011;24973;47.178;15.316;2023-03-03T09:18:12;23.87;;;12.57;;
21798;SDS011;24973;47.178;15.316;2023-03-03T09:21:13;23.13;;;12.73;;
21798;SDS011;24973;47.178;15.316;2023-03-03T09:24:10;16.10;;;8.67;;
21798;SDS011;24973;47.178;15.316;2023-03-03T09:27:06;14.20;;;9.53;;
21798;SDS011;24973;47.178;15.316;2023-03-03T09:30:11;14.43;;;9.17;;
21798;SDS011;24973;47.178;15.316;2023-03-03T09:33:25;12.37;;;8.63;;
21798;SDS011;24973;47.178;15.316;2023-03-03T09:36:18;13.97;;;7.47;;
21798;SDS011;24973;47.178;15.316;2023-03-03T09:39:12;11.53;;;8.53;;
21798;SDS011;24973;47.178;15.316;2023-03-03T09:42:11;11.37;;;8.23;;
21798;SDS011;24973;47.178;15.316;2023-03-03T09:45:22;13.43;;;9.80;;
21798;SDS011;24973;47.178;15.316;2023-03-03T09:48:35;11.73;;;9.83;;
21798;SDS011;24973;47.178;15.316;2023-03-03T09:54:55;9.63;;;8.23;;
21798;SDS011;24973;47.178;15.316;2023-03-03T09:57:54;13.57;;;7.80;;
21798;SDS011;24973;47.178;15.316;2023-03-03T10:00:58;13.47;;;8.57;;
21798;SDS011;24973;47.178;15.316;2023-03-03T10:07:27;9.67;;;7.33;;
21798;SDS011;24973;47.178;15.316;2023-03-03T10:10:30;13.10;;;7.07;;
21798;SDS011;24973;47.178;15.316;2023-03-03T10:13:39;13.40;;;7.60;;
21798;SDS011;24973;47.178;15.316;2023-03-03T10:16:57;12.77;;;6.97;;
21798;SDS011;24973;47.178;15.316;2023-03-03T10:20:00;7.40;;;5.17;;
21798;SDS011;24973;47.178;15.316;2023-03-03T10:22:55;9.53;;;6.23;;
21798;SDS011;24973;47.178;15.316;2023-03-03T10:25:52;11.03;;;6.87;;
21798;SDS011;24973;47.178;15.316;2023-03-03T10:29:00;8.77;;;6.43;;
21798;SDS011;24973;47.178;15.316;2023-03-03T10:31:59;11.17;;;8.27;;
21798;SDS011;24973;47.178;15.316;2023-03-03T10:35:10;8.80;;;7.03;;
21798;SDS011;24973;47.178;15.316;2023-03-03T10:38:55;8.13;;;6.40;;
21798;SDS011;24973;47.178;15.316;2023-03-03T10:41:55;10.73;;;6.70;;
21798;SDS011;24973;47.178;15.316;2023-03-03T10:44:54;12.83;;;6.97;;
21798;SDS011;24973;47.178;15.316;2023-03-03T10:47:56;11.43;;;6.83;;
21798;SDS011;24973;47.178;15.316;2023-03-03T10:50:53;9.87;;;6.97;;
21798;SDS011;24973;47.178;15.316;2023-03-03T10:53:47;12.30;;;6.63;;
21798;SDS011;24973;47.178;15.316;2023-03-03T10:56:43;12.47;;;6.37;;
21798;SDS011;24973;47.178;15.316;2023-03-03T10:59:42;9.03;;;6.50;;
21798;SDS011;24973;47.178;15.316;2023-03-03T11:02:41;8.90;;;6.23;;
21798;SDS011;24973;47.178;15.316;2023-03-03T11:05:36;9.77;;;7.43;;
21798;SDS011;24973;47.178;15.316;2023-03-03T11:08:29;9.53;;;6.97;;
21798;SDS011;24973;47.178;15.316;2023-03-03T11:11:25;10.97;;;6.83;;
21798;SDS011;24973;47.178;15.316;2023-03-03T11:14:20;11.37;;;6.90;;
21798;SDS011;24973;47.178;15.316;2023-03-03T11:17:15;8.03;;;6.27;;
21798;SDS011;24973;47.178;15.316;2023-03-03T11:20:10;7.87;;;7.07;;
21798;SDS011;24973;47.178;15.316;2023-03-03T11:23:13;9.83;;;6.63;;
21798;SDS011;24973;47.178;15.316;2023-03-03T11:26:29;13.70;;;7.17;;
21798;SDS011;24973;47.178;15.316;2023-03-03T11:29:37;11.23;;;7.67;;
21798;SDS011;24973;47.178;15.316;2023-03-03T11:32:37;9.97;;;7.10;;
21798;SDS011;24973;47.178;15.316;2023-03-03T11:35:31;11.93;;;8.03;;
21798;SDS011;24973;47.178;15.316;2023-03-03T11:38:32;9.03;;;6.53;;
21798;SDS011;24973;47.178;15.316;2023-03-03T11:41:35;9.53;;;6.70;;
21798;SDS011;24973;47.178;15.316;2023-03-03T11:44:28;9.30;;;6.47;;
21798;SDS011;24973;47.178;15.316;2023-03-03T11:47:19;12.07;;;7.10;;
21798;SDS011;24973;47.178;15.316;2023-03-03T11:50:13;11.60;;;8.33;;
21798;SDS011;24973;47.178;15.316;2023-03-03T11:53:12;14.23;;;7.17;;
21798;SDS011;24973;47.178;15.316;2023-03-03T11:56:14;11.33;;;6.40;;
21798;SDS011;24973;47.178;15.316;2023-03-03T12:02:44;9.93;;;6.40;;
21798;SDS011;24973;47.178;15.316;2023-03-03T12:05:59;10.87;;;5.80;;
21798;SDS011;24973;47.178;15.316;2023-03-03T12:09:05;10.17;;;6.93;;
21798;SDS011;24973;47.178;15.316;2023-03-03T12:12:02;8.20;;;6.67;;
21798;SDS011;24973;47.178;15.316;2023-03-03T12:14:57;7.20;;;6.00;;
21798;SDS011;24973;47.178;15.316;2023-03-03T12:18:04;9.40;;;6.33;;
21798;SDS011;24973;47.178;15.316;2023-03-03T12:21:04;16.93;;;7.03;;
21798;SDS011;24973;47.178;15.316;2023-03-03T12:24:07;12.37;;;6.97;;
21798;SDS011;24973;47.178;15.316;2023-03-03T12:27:08;10.83;;;7.17;;
21798;SDS011;24973;47.178;15.316;2023-03-03T12:30:05;13.93;;;7.53;;
21798;SDS011;24973;47.178;15.316;2023-03-03T12:33:03;9.83;;;7.33;;
21798;SDS011;24973;47.178;15.316;2023-03-03T12:36:01;9.83;;;6.87;;
21798;SDS011;24973;47.178;15.316;2023-03-03T12:38:58;11.93;;;7.13;;
21798;SDS011;24973;47.178;15.316;2023-03-03T12:41:55;14.87;;;7.20;;
21798;SDS011;24973;47.178;15.316;2023-03-03T12:44:53;10.97;;;6.43;;
21798;SDS011;24973;47.178;15.316;2023-03-03T12:47:48;9.53;;;6.67;;
21798;SDS011;24973;47.178;15.316;2023-03-03T12:50:41;12.37;;;8.37;;
21798;SDS011;24973;47.178;15.316;2023-03-03T12:53:47;11.03;;;7.63;;
21798;SDS011;24973;47.178;15.316;2023-03-03T12:56:56;11.83;;;8.20;;
21798;SDS011;24973;47.178;15.316;2023-03-03T12:59:50;11.83;;;7.27;;
21798;SDS011;24973;47.178;15.316;2023-03-03T13:02:58;9.37;;;7.07;;
21798;SDS011;24973;47.178;15.316;2023-03-03T13:05:51;11.70;;;7.97;;
21798;SDS011;24973;47.178;15.316;2023-03-03T13:08:47;14.83;;;8.03;;
21798;SDS011;24973;47.178;15.316;2023-03-03T13:14:55;18.43;;;8.80;;
21798;SDS011;24973;47.178;15.316;2023-03-03T13:17:50;15.77;;;10.20;;
21798;SDS011;24973;47.178;15.316;2023-03-03T13:20:47;11.13;;;7.50;;
21798;SDS011;24973;47.178;15.316;2023-03-03T13:23:42;10.60;;;8.00;;
21798;SDS011;24973;47.178;15.316;2023-03-03T13:26:36;10.93;;;8.13;;
21798;SDS011;24973;47.178;15.316;2023-03-03T13:29:32;15.23;;;7.37;;
21798;SDS011;24973;47.178;15.316;2023-03-03T13:32:23;11.10;;;8.03;;
21798;SDS011;24973;47.178;15.316;2023-03-03T13:35:21;15.30;;;6.50;;
21798;SDS011;24973;47.178;15.316;2023-03-03T13:38:18;9.63;;;6.93;;
21798;SDS011;24973;47.178;15.316;2023-03-03T13:41:11;12.83;;;7.97;;
21798;SDS011;24973;47.178;15.316;2023-03-03T13:44:05;15.60;;;7.13;;
21798;SDS011;24973;47.178;15.316;2023-03-03T13:47:02;10.80;;;7.37;;
21798;SDS011;24973;47.178;15.316;2023-03-03T13:50:10;11.67;;;7.67;;
21798;SDS011;24973;47.178;15.316;2023-03-03T13:53:22;14.20;;;8.03;;
21798;SDS011;24973;47.178;15.316;2023-03-03T13:56:30;9.10;;;7.00;;
21798;SDS011;24973;47.178;15.316;2023-03-03T13:59:26;11.60;;;7.63;;
21798;SDS011;24973;47.178;15.316;2023-03-03T14:02:32;13.50;;;7.60;;
21798;SDS011;24973;47.178;15.316;2023-03-03T14:05:33;15.63;;;8.03;;
21798;SDS011;24973;47.178;15.316;2023-03-03T14:08:38;9.30;;;6.73;;
21798;SDS011;24973;47.178;15.316;2023-03-03T14:11:34;31.77;;;20.43;;
21798;SDS011;24973;47.178;15.316;2023-03-03T14:14:38;25.43;;;21.30;;
21798;SDS011;24973;47.178;15.316;2023-03-03T14:17:33;19.60;;;12.77;;
21798;SDS011;24973;47.178;15.316;2023-03-03T14:20:26;10.67;;;9.03;;
21798;SDS011;24973;47.178;15.316;2023-03-03T14:23:18;13.10;;;8.17;;
21798;SDS011;24973;47.178;15.316;2023-03-03T14:26:10;10.10;;;8.03;;
21798;SDS011;24973;47.178;15.316;2023-03-03T14:29:04;11.97;;;6.77;;
21798;SDS011;24973;47.178;15.316;2023-03-03T14:32:20;11.30;;;6.80;;
21798;SDS011;24973;47.178;15.316;2023-03-03T14:35:22;12.97;;;7.53;;
21798;SDS011;24973;47.178;15.316;2023-03-03T14:38:13;11.23;;;8.20;;
21798;SDS011;24973;47.178;15.316;2023-03-03T14:41:07;14.13;;;7.90;;
21798;SDS011;24973;47.178;15.316;2023-03-03T14:44:25;12.87;;;7.47;;
21798;SDS011;24973;47.178;15.316;2023-03-03T14:47:17;10.37;;;7.50;;
21798;SDS011;24973;47.178;15.316;2023-03-03T14:50:27;15.40;;;7.95;;
21798;SDS011;24973;47.178;15.316;2023-03-03T14:53:31;11.37;;;8.77;;
21798;SDS011;24973;47.178;15.316;2023-03-03T14:56:23;11.80;;;7.50;;
21798;SDS011;24973;47.178;15.316;2023-03-03T14:59:15;9.37;;;7.00;;
21798;SDS011;24973;47.178;15.316;2023-03-03T15:05:20;7.30;;;5.70;;
21798;SDS011;24973;47.178;15.316;2023-03-03T15:08:13;12.70;;;6.63;;
21798;SDS011;24973;47.178;15.316;2023-03-03T15:11:12;12.00;;;6.80;;
21798;SDS011;24973;47.178;15.316;2023-03-03T15:14:10;16.67;;;7.37;;
21798;SDS011;24973;47.178;15.316;2023-03-03T15:17:18;9.47;;;7.53;;
21798;SDS011;24973;47.178;15.316;2023-03-03T15:20:17;12.30;;;6.47;;
21798;SDS011;24973;47.178;15.316;2023-03-03T15:23:29;9.10;;;7.13;;
21798;SDS011;24973;47.178;15.316;2023-03-03T15:26:26;10.50;;;6.67;;
21798;SDS011;24973;47.178;15.316;2023-03-03T15:29:19;12.90;;;7.87;;
21798;SDS011;24973;47.178;15.316;2023-03-03T15:32:13;8.70;;;7.80;;
21798;SDS011;24973;47.178;15.316;2023-03-03T15:35:06;11.90;;;7.50;;
21798;SDS011;24973;47.178;15.316;2023-03-03T15:38:08;11.67;;;9.17;;
21798;SDS011;24973;47.178;15.316;2023-03-03T15:41:10;16.43;;;9.70;;
21798;SDS011;24973;47.178;15.316;2023-03-03T15:44:11;15.03;;;9.23;;
21798;SDS011;24973;47.178;15.316;2023-03-03T15:47:10;18.50;;;9.30;;
21798;SDS011;24973;47.178;15.316;2023-03-03T15:50:14;12.53;;;9.37;;
21798;SDS011;24973;47.178;15.316;2023-03-03T15:53:25;10.30;;;7.87;;
21798;SDS011;24973;47.178;15.316;2023-03-03T15:56:26;12.77;;;7.50;;
21798;SDS011;24973;47.178;15.316;2023-03-03T15:59:26;8.30;;;6.73;;
21798;SDS011;24973;47.178;15.316;2023-03-03T16:02:21;11.07;;;6.70;;
21798;SDS011;24973;47.178;15.316;2023-03-03T16:05:13;8.30;;;6.33;;
21798;SDS011;24973;47.178;15.316;2023-03-03T16:08:04;17.97;;;11.87;;
21798;SDS011;24973;47.178;15.316;2023-03-03T16:11:01;11.73;;;8.80;;
21798;SDS011;24973;47.178;15.316;2023-03-03T16:14:00;11.57;;;7.43;;
21798;SDS011;24973;47.178;15.316;2023-03-03T16:16:59;9.27;;;5.90;;
21798;SDS011;24973;47.178;15.316;2023-03-03T16:19:52;10.80;;;5.90;;
21798;SDS011;24973;47.178;15.316;2023-03-03T16:22:55;6.97;;;5.43;;
21798;SDS011;24973;47.178;15.316;2023-03-03T16:26:03;10.27;;;5.63;;
21798;SDS011;24973;47.178;15.316;2023-03-03T16:29:10;10.07;;;6.00;;
21798;SDS011;24973;47.178;15.316;2023-03-03T16:32:15;12.37;;;5.87;;
21798;SDS011;24973;47.178;15.316;2023-03-03T16:35:14;7.87;;;6.97;;
21798;SDS011;24973;47.178;15.316;2023-03-03T16:38:10;10.37;;;6.67;;
21798;SDS011;24973;47.178;15.316;2023-03-03T16:41:00;9.70;;;7.77;;
21798;SDS011;24973;47.178;15.316;2023-03-03T16:43:55;11.70;;;7.87;;
21798;SDS011;24973;47.178;15.316;2023-03-03T16:46:50;12.70;;;8.23;;
21798;SDS011;24973;47.178;15.316;2023-03-03T16:49:44;11.13;;;6.20;;
21798;SDS011;24973;47.178;15.316;2023-03-03T16:52:38;16.70;;;6.70;;
21798;SDS011;24973;47.178;15.316;2023-03-03T16:55:31;8.47;;;6.30;;
21798;SDS011;24973;47.178;15.316;2023-03-03T16:58:25;13.10;;;7.07;;
21798;SDS011;24973;47.178;15.316;2023-03-03T17:01:24;10.07;;;5.97;;
21798;SDS011;24973;47.178;15.316;2023-03-03T17:04:21;15.07;;;11.97;;
21798;SDS011;24973;47.178;15.316;2023-03-03T17:07:27;11.07;;;8.07;;
21798;SDS011;24973;47.178;15.316;2023-03-03T17:10:24;13.23;;;6.47;;
21798;SDS011;24973;47.178;15.316;2023-03-03T17:16:32;9.93;;;6.13;;
21798;SDS011;24973;47.178;15.316;2023-03-03T17:19:50;6.47;;;5.53;;
21798;SDS011;24973;47.178;15.316;2023-03-03T17:22:46;10.27;;;7.65;;
21798;SDS011;24973;47.178;15.316;2023-03-03T17:25:41;10.50;;;8.48;;
21798;SDS011;24973;47.178;15.316;2023-03-03T17:28:35;12.40;;;8.77;;